Weather History for KMAN - February, 2012

Change the Weather History Date:

Saturday, February 18, 2012

  Actual Average (KBOI) Record (KBOI)
Temperature  
Mean Temperature 42 °F 37 °F  
Max Temperature 46 °F 46 °F 65 °F (1958)
Min Temperature 39 °F 29 °F 0 °F (1882)
Degree Days  
Heating Degree Days 22 28  
Month to date heating degree days 537  
Since 1 July heating degree days 3898  
Cooling Degree Days 0 0  
Month to date cooling degree days 0  
Year to date cooling degree days 0  
Moisture  
Dew Point 25 °F    
Average Humidity 54    
Maximum Humidity 81    
Minimum Humidity 27    
Precipitation  
Precipitation 0.00 in 0.03 in 0.58 in (1915)
Month to date precipitation 0.62  
Year to date precipitation 1.86  
Snow  
Snow 0.00 in 0.10 in 3.40 in (1910)
Month to date snowfall 2.1  
Since 1 July snowfall 16.9  
Snow Depth -    
Sea Level Pressure  
Sea Level Pressure 30.03 in    
Wind  
Wind Speed 11 mph (WNW)    
Max Wind Speed 16 mph    
Max Gust Speed 23 mph    
Visibility 10 miles    
Events      
T = Trace of Precipitation, MM = Missing Value Source: NWS Daily Summary

Daily Weather History Graph

Daily Weather History Graph

Search for Another Location

Airport or City:

Trip Planner

Search our weather history database for the weather conditions in past years. The results will help you decide how hot, cold, wet, or windy it might be!

Date:

Astronomy

Feb. 18, 2012 Rise Set
Actual Time 7:40 AM MST 6:19 PM MST
Civil Twilight 7:11 AM MST 6:49 PM MST
Nautical Twilight 6:38 AM MST 7:22 PM MST
Astronomical Twilight 6:04 AM MST 7:55 PM MST
Moon 5:28 AM MST (2/18) 3:17 PM MST (2/18)
Length of Visible Light 11h 37m
Length of Day
10h 39m
Waning Crescent, 11% of the Moon is Illuminated
Feb 18
Waning Crescent
Feb 21
New
Feb 29
First Quarter
Mar 8
Full
Mar 14
Last Quarter

Hourly Weather History & Observations

Time (MST) Temp. Windchill Dew Point Humidity Pressure Visibility Wind Dir Wind Speed Gust Speed Precip Events Conditions
12:35 AM 39.2 °F 33.0 °F 30.2 °F 70% 30.04 in 10.0 mi SE 9.2 mph - N/A   Overcast
12:55 AM 39.2 °F 32.0 °F 28.4 °F 65% 30.03 in 10.0 mi SE 11.5 mph 17.3 mph N/A   Overcast
1:15 AM 41.0 °F 33.9 °F 28.4 °F 61% 30.02 in 10.0 mi SE 12.7 mph 19.6 mph N/A   Overcast
1:35 AM 41.0 °F 35.2 °F 28.4 °F 61% 30.02 in 10.0 mi SE 9.2 mph - N/A   Overcast
1:55 AM 41.0 °F 34.3 °F 28.4 °F 61% 30.02 in 10.0 mi SE 11.5 mph 17.3 mph N/A   Overcast
2:15 AM 41.0 °F 34.7 °F 28.4 °F 61% 30.01 in 10.0 mi SE 10.4 mph - N/A   Overcast
2:35 AM 42.8 °F 35.8 °F 28.4 °F 57% 30.01 in 10.0 mi SE 13.8 mph 19.6 mph N/A   Overcast
2:55 AM 42.8 °F 36.2 °F 28.4 °F 57% 30.01 in 10.0 mi SSE 12.7 mph - N/A   Overcast
3:15 AM 42.8 °F 36.2 °F 26.6 °F 53% 30.00 in 10.0 mi SE 12.7 mph 23.0 mph N/A   Overcast
3:35 AM 41.0 °F 33.5 °F 28.4 °F 61% 29.99 in 10.0 mi SE 13.8 mph 18.4 mph N/A   Overcast
3:55 AM 42.8 °F 36.2 °F 28.4 °F 57% 29.98 in 10.0 mi SE 12.7 mph - N/A   Overcast
4:15 AM 41.0 °F 33.5 °F 26.6 °F 57% 29.98 in 10.0 mi SE 13.8 mph 20.7 mph N/A   Overcast
4:35 AM 42.8 °F 35.8 °F 26.6 °F 53% 29.98 in 10.0 mi SE 13.8 mph - N/A   Overcast
4:55 AM 41.0 °F 35.2 °F 26.6 °F 57% 29.98 in 10.0 mi SSE 9.2 mph 17.3 mph N/A   Overcast
5:15 AM 41.0 °F 37.1 °F 26.6 °F 57% 29.99 in 10.0 mi South 5.8 mph - N/A   Overcast
5:35 AM 41.0 °F 36.4 °F 28.4 °F 61% 30.00 in 10.0 mi SSW 6.9 mph - N/A   Overcast
5:55 AM 41.0 °F 36.4 °F 28.4 °F 61% 30.00 in 10.0 mi SW 6.9 mph - N/A   Overcast
6:15 AM 41.0 °F 37.1 °F 28.4 °F 61% 30.00 in 10.0 mi SSE 5.8 mph - N/A   Overcast
6:35 AM 39.2 °F 35.9 °F 30.2 °F 70% 30.00 in 10.0 mi SE 4.6 mph - N/A   Overcast
6:55 AM 39.2 °F 35.0 °F 32.0 °F 75% 30.00 in 10.0 mi SE 5.8 mph - N/A   Overcast
7:15 AM 41.0 °F - 28.4 °F 61% 30.00 in 10.0 mi Calm Calm - N/A   Overcast
7:35 AM 41.0 °F 35.2 °F 30.2 °F 65% 30.02 in 10.0 mi West 9.2 mph - N/A   Overcast
7:55 AM 39.2 °F 33.0 °F 32.0 °F 75% 30.03 in 10.0 mi NW 9.2 mph - N/A   Overcast
8:15 AM 39.2 °F 32.5 °F 33.8 °F 81% 30.05 in 8.0 mi NW 10.4 mph - N/A   Mostly Cloudy
8:35 AM 39.2 °F 30.5 °F 33.8 °F 81% 30.05 in 8.0 mi NNW 16.1 mph 21.9 mph N/A   Partly Cloudy
8:55 AM 39.2 °F 30.8 °F 32.0 °F 75% 30.05 in 10.0 mi North 15.0 mph 20.7 mph N/A   Partly Cloudy
9:15 AM 39.2 °F 34.2 °F 32.0 °F 75% 30.07 in 10.0 mi North 6.9 mph - N/A   Mostly Cloudy
9:35 AM 39.2 °F 35.0 °F 32.0 °F 75% 30.08 in 10.0 mi North 5.8 mph - N/A   Mostly Cloudy
9:55 AM 39.2 °F 34.2 °F 32.0 °F 75% 30.08 in 10.0 mi North 6.9 mph - N/A   Mostly Cloudy
10:15 AM 39.2 °F 30.5 °F 28.4 °F 65% 30.09 in 10.0 mi NW 16.1 mph 23.0 mph N/A   Mostly Cloudy
10:35 AM 41.0 °F 34.7 °F 23.0 °F 49% 30.09 in 10.0 mi NW 10.4 mph - N/A   Mostly Cloudy
10:55 AM 41.0 °F 35.2 °F 24.8 °F 53% 30.09 in 10.0 mi WNW 9.2 mph - N/A   Mostly Cloudy
11:15 AM 41.0 °F 34.7 °F 26.6 °F 57% 30.08 in 10.0 mi WNW 10.4 mph - N/A   Overcast
11:35 AM 41.0 °F 33.9 °F 23.0 °F 49% 30.07 in 10.0 mi WNW 12.7 mph 20.7 mph N/A   Mostly Cloudy
11:55 AM 41.0 °F 34.7 °F 21.2 °F 45% 30.08 in 10.0 mi West 10.4 mph - N/A   Partly Cloudy
12:15 PM 41.0 °F 34.3 °F 23.0 °F 49% 30.07 in 10.0 mi WNW 11.5 mph - N/A   Scattered Clouds
12:35 PM 41.0 °F 34.7 °F 23.0 °F 49% 30.07 in 10.0 mi West 10.4 mph - N/A   Partly Cloudy
12:55 PM 41.0 °F 33.9 °F 19.4 °F 42% 30.06 in 10.0 mi WNW 12.7 mph 16.1 mph N/A   Clear
1:15 PM 41.0 °F 34.7 °F 17.6 °F 39% 30.06 in 10.0 mi West 10.4 mph - N/A   Clear
1:35 PM 42.8 °F 35.8 °F 19.4 °F 39% 30.06 in 10.0 mi WNW 13.8 mph - N/A   Clear
1:55 PM 42.8 °F 35.8 °F 19.4 °F 39% 30.05 in 10.0 mi NW 13.8 mph 17.3 mph N/A   Partly Cloudy
2:15 PM 44.6 °F 38.4 °F 15.8 °F 31% 30.05 in 10.0 mi WNW 12.7 mph - N/A   Partly Cloudy
2:35 PM 42.8 °F 36.2 °F 14.0 °F 31% 30.04 in 10.0 mi NNW 12.7 mph - N/A   Partly Cloudy
2:55 PM 42.8 °F 37.5 °F 15.8 °F 34% 30.04 in 10.0 mi WNW 9.2 mph - N/A   Clear
3:35 PM 46.4 °F 41.1 °F 14.0 °F 27% 30.03 in 10.0 mi NNW 11.5 mph 19.6 mph N/A   Partly Cloudy
3:55 PM 44.6 °F 38.1 °F 12.2 °F 27% 30.02 in 10.0 mi NW 13.8 mph 18.4 mph N/A   Partly Cloudy
4:15 PM 44.6 °F 38.1 °F 12.2 °F 27% 30.02 in 10.0 mi NW 13.8 mph 21.9 mph N/A   Clear
4:35 PM 44.6 °F 38.8 °F 14.0 °F 29% 30.02 in 10.0 mi NNW 11.5 mph 18.4 mph N/A   Clear
4:55 PM 44.6 °F 38.1 °F 12.2 °F 27% 30.02 in 10.0 mi NW 13.8 mph - N/A   Partly Cloudy
5:15 PM 42.8 °F 38.0 °F 15.8 °F 34% 30.03 in 10.0 mi NNW 8.1 mph - N/A   Partly Cloudy
5:35 PM 41.0 °F 36.4 °F 17.6 °F 39% 30.03 in 10.0 mi North 6.9 mph - N/A   Partly Cloudy
5:55 PM 41.0 °F 35.8 °F 17.6 °F 39% 30.03 in 10.0 mi NNW 8.1 mph - N/A   Clear
6:15 PM 41.0 °F 37.1 °F 17.6 °F 39% 30.03 in 10.0 mi NNW 5.8 mph - N/A   Clear
6:35 PM 39.2 °F 35.0 °F 17.6 °F 42% 30.04 in 10.0 mi NNW 5.8 mph - N/A   Clear
6:55 PM 37.4 °F 32.8 °F 19.4 °F 48% 30.05 in 10.0 mi NNW 5.8 mph - N/A   Clear
7:35 PM 35.6 °F 32.8 °F 17.6 °F 48% 30.05 in 10.0 mi NNW 3.5 mph - N/A   Clear
7:55 PM 33.8 °F 27.7 °F 19.4 °F 56% 30.05 in 10.0 mi WNW 6.9 mph - N/A   Clear
8:15 PM 35.6 °F 31.7 °F 17.6 °F 48% 30.05 in 10.0 mi WNW 4.6 mph - N/A   Clear
8:35 PM 35.6 °F 29.9 °F 17.6 °F 48% 30.06 in 10.0 mi NW 6.9 mph - N/A   Clear
8:55 PM 35.6 °F 30.7 °F 17.6 °F 48% 30.06 in 10.0 mi NW 5.8 mph - N/A   Clear
9:15 PM 35.6 °F 32.8 °F 19.4 °F 52% 30.06 in 10.0 mi NNW 3.5 mph - N/A   Clear
9:35 PM 33.8 °F 29.6 °F 19.4 °F 56% 30.06 in 10.0 mi North 4.6 mph - N/A   Clear
9:55 PM 32.0 °F 28.7 °F 19.4 °F 60% 30.06 in 10.0 mi NNW 3.5 mph - N/A   Clear
10:15 PM 32.0 °F 28.7 °F 19.4 °F 60% 30.06 in 10.0 mi WNW 3.5 mph - N/A   Mostly Cloudy
10:35 PM 32.0 °F 27.5 °F 19.4 °F 60% 30.06 in 10.0 mi WNW 4.6 mph - N/A   Mostly Cloudy
10:55 PM 32.0 °F 27.5 °F 19.4 °F 60% 30.06 in 10.0 mi NW 4.6 mph - N/A   Partly Cloudy
11:15 PM 32.0 °F 26.4 °F 19.4 °F 60% 30.06 in 10.0 mi WNW 5.8 mph - N/A   Clear
11:35 PM 32.0 °F 25.6 °F 19.4 °F 60% 30.06 in 10.0 mi West 6.9 mph - N/A   Mostly Cloudy